Observations for Trim Market St
| Time | AQI | Temp °C | Hum % | Pres Pa | CO μg/m³ | H₂S μg/m³ | NO μg/m³ | NO₂ μg/m³ | O₃ μg/m³ | SO₂ μg/m³ | PM1 μg/m³ | PM2.5 μg/m³ | PM10 μg/m³ |
|---|---|---|---|---|---|---|---|---|---|---|---|---|---|
| Monday 13 July 2026 | |||||||||||||
| 09:09 | 1 | 29 | 43 | 64,262 | 0 | 0 | 0 | 0 | 11.07 | 0 | 2.14 | 4.87 | 5.16 |
| 09:08 | 1 | 28.9 | 43 | 64,163 | 0 | 0 | 0 | 0 | 15.61 | 0 | 2.14 | 4.87 | 5.16 |
| 09:07 | 1 | 28.9 | 43 | 64,141 | 0 | 0 | 0 | 0 | 9.88 | 0 | 1.43 | 4.33 | 5.16 |
| 09:06 | 1 | 28.8 | 43 | 64,017 | 0 | 0 | 0 | 0 | 10.83 | 0 | 1.43 | 4.31 | 6.74 |
| 09:05 | 1 | 28.7 | 44 | 63,809 | 0 | 0 | 0 | 0 | 4.51 | 0 | 1.43 | 4.29 | 6.74 |
| 09:04 | 1 | 28.6 | 44 | 63,564 | 0 | 0 | 0 | 0 | 16.5 | 0 | 1.43 | 4.28 | 4.4 |
| 09:02 | 1 | 28.4 | 44 | 63,378 | 0 | 0 | 0 | 0 | 8.29 | 0 | 2.14 | 4.27 | 4.4 |
| 09:01 | 1 | 28.3 | 44 | 63,177 | 0 | 0 | 0 | 0 | 15.5 | 0 | 1.43 | 4.79 | 8.31 |
| 09:00 | 1 | 28.2 | 44 | 63,076 | 0 | 0 | 0 | 0 | 13.89 | 0 | 2.14 | 5.31 | 6.75 |
| 08:58 | 1 | 28.1 | 45 | 62,944 | 0 | 0 | 0 | 0 | 16.3 | 0 | 0.71 | 4.25 | 4.42 |
| 08:57 | 1 | 28 | 45 | 62,909 | 0 | 0 | 0 | 0 | 12.14 | 0 | 2.14 | 4.77 | 5.2 |
| 08:55 | 1 | 27.9 | 45 | 62,869 | 0 | 0 | 0 | 0 | 14.54 | 0 | 0.71 | 3.72 | 4.1 |
| 08:54 | 1 | 27.8 | 45 | 62,997 | 0 | 0 | 0 | 0 | 15.42 | 0 | 0.71 | 2.68 | 2.86 |
| 08:53 | 1 | 27.7 | 45 | 63,060 | 0 | 0 | 0 | 0 | 18.77 | 0 | 1.43 | 4.25 | 4.42 |
| 08:52 | 1 | 27.7 | 45 | 63,114 | 0 | 0 | 0 | 0 | 13.84 | 0 | 1.43 | 4.25 | 4.42 |
| 08:50 | 1 | 27.6 | 45 | 63,294 | 0 | 0 | 0 | 0 | 12.55 | 0 | 1.43 | 4.23 | 6.75 |
| 08:47 | 1 | 27.4 | 46 | 63,121 | 0 | 0 | 0 | 0 | 5.31 | 0 | 1.43 | 3.67 | 3.68 |
| 08:46 | 1 | 27.3 | 46 | 62,907 | 0 | 0 | 0 | 0 | 0 | 0 | 1.43 | 3.65 | 4.46 |
| 08:44 | 1 | 27.1 | 47 | 62,176 | 0 | 0 | 0 | 0 | 8.25 | 0 | 0 | 3.11 | 4.47 |
| 08:41 | 1 | 26.9 | 47 | 61,404 | 0 | 0 | 0 | 0 | 15.62 | 0 | 1.43 | 4.64 | 5.24 |